Flight Track Log - Related Links

Times and Time Zones

All times are in EDT time to prevent confusion due to time zone crossing. See the CCA4122 flight status page for this flight to view local times or setup timezone preferences in your user account.

Time Position Orientation Groundspeed Altitude Reporting Facility
EDT Latitude Longitude Course Direction KTS MPH feet Rate Location/Type
Wed 03:39:00 AM 39.8690 116.1262 239° Southwest  Level Estimated
Wed 03:40:00 AM 39.8266 116.0349 239° Southwest  Level Estimated
Wed 03:41:00 AM 39.7840 115.9437 239° Southwest  Level Estimated
Wed 03:42:00 AM 39.7415 115.8526 239° Southwest  Level Estimated
Wed 03:43:00 AM 39.6988 115.7616 239° Southwest  Level Estimated
Wed 03:44:00 AM 39.6561 115.6707 239° Southwest  Level Estimated
Wed 03:45:00 AM 39.6133 115.5800 239° Southwest  Level Estimated
Wed 03:46:00 AM 39.5704 115.4893 238° Southwest  Level Estimated
Wed 03:47:00 AM 39.5275 115.3988 238° Southwest  Level Estimated
Wed 03:48:00 AM 39.4845 115.3083 238° Southwest  Level Estimated
Wed 03:49:00 AM 39.4414 115.2180 238° Southwest  Level Estimated
Wed 03:50:00 AM 39.3983 115.1278 238° Southwest  Level Estimated
Wed 03:51:00 AM 39.3551 115.0378 238° Southwest  Level Estimated
Wed 03:52:00 AM 39.3118 114.9478 238° Southwest  Level Estimated
Wed 03:53:00 AM 39.2685 114.8579 238° Southwest  Level Estimated
Wed 03:54:00 AM 39.2251 114.7681 238° Southwest  Level Estimated
Wed 03:55:00 AM 39.1816 114.6785 238° Southwest  Level Estimated
Wed 03:56:00 AM 39.1380 114.5890 238° Southwest  Level Estimated
Wed 03:57:00 AM 39.0944 114.4995 238° Southwest  Level Estimated
Wed 03:58:00 AM 39.0507 114.4102 238° Southwest  Level Estimated
Wed 03:59:00 AM 39.0069 114.3210 238° Southwest  Level Estimated
Wed 04:00:00 AM 38.9631 114.2319 238° Southwest  Level Estimated
Wed 04:01:00 AM 38.9192 114.1430 238° Southwest  Level Estimated
Wed 04:02:00 AM 38.8752 114.0541 238° Southwest  Level Estimated
Wed 04:03:00 AM 38.8312 113.9653 238° Southwest  Level Estimated
Wed 04:04:00 AM 38.7871 113.8767 237° Southwest  Level Estimated
Wed 04:05:00 AM 38.7429 113.7881 237° Southwest  Level Estimated
Wed 04:06:00 AM 38.6987 113.6997 237° Southwest  Level Estimated
Wed 04:07:00 AM 38.6544 113.6114 237° Southwest  Level Estimated
Wed 04:08:00 AM 38.6100 113.5232 237° Southwest  Level Estimated
Wed 04:09:00 AM 38.5656 113.4351 237° Southwest  Level Estimated
Wed 04:10:00 AM 38.5211 113.3471 237° Southwest  Level Estimated
Wed 04:11:00 AM 38.4765 113.2592 237° Southwest  Level Estimated
Wed 04:12:00 AM 38.4319 113.1714 237° Southwest  Level Estimated
Wed 04:13:00 AM 38.3872 113.0837 237° Southwest  Level Estimated
Wed 04:14:00 AM 38.3424 112.9962 237° Southwest  Level Estimated
Wed 04:15:00 AM 38.2976 112.9087 237° Southwest  Level Estimated
Wed 04:16:00 AM 38.2527 112.8214 237° Southwest  Level Estimated
Wed 04:17:00 AM 38.2077 112.7341 237° Southwest  Level Estimated
Wed 04:18:00 AM 38.1627 112.6470 237° Southwest  Level Estimated
Wed 04:19:00 AM 38.1176 112.5600 237° Southwest  Level Estimated
Wed 04:20:00 AM 38.0725 112.4731 237° Southwest  Level Estimated
Wed 04:21:00 AM 38.0273 112.3863 237° Southwest  Level Estimated
Wed 04:22:00 AM 37.9820 112.2996 236° Southwest  Level Estimated
Wed 04:23:00 AM 37.9367 112.2130 236° Southwest  Level Estimated
Wed 04:24:00 AM 37.8913 112.1265 236° Southwest  Level Estimated
Wed 04:25:00 AM 37.8458 112.0401 236° Southwest  Level Estimated
Wed 04:26:00 AM 37.8003 111.9538 236° Southwest  Level Estimated
Wed 04:27:00 AM 37.7547 111.8677 236° Southwest  Level Estimated
Wed 04:28:00 AM 37.7090 111.7816 236° Southwest  Level Estimated
Wed 04:29:00 AM 37.6633 111.6956 236° Southwest  Level Estimated
Wed 04:30:00 AM 37.6175 111.6098 236° Southwest  Level Estimated
Wed 04:31:00 AM 37.5717 111.5241 236° Southwest  Level Estimated
Wed 04:32:00 AM 37.5258 111.4384 236° Southwest  Level Estimated
Wed 04:33:00 AM 37.4798 111.3529 236° Southwest  Level Estimated
Wed 04:34:00 AM 37.4338 111.2675 236° Southwest  Level Estimated
Wed 04:35:00 AM 37.3877 111.1821 236° Southwest  Level Estimated
Wed 04:36:00 AM 37.3415 111.0969 236° Southwest  Level Estimated
Wed 04:37:00 AM 37.2953 111.0118 236° Southwest  Level Estimated
Wed 04:38:00 AM 37.2491 110.9268 236° Southwest  Level Estimated
Wed 04:39:00 AM 37.2027 110.8419 236° Southwest  Level Estimated
Wed 04:40:00 AM 37.1563 110.7571 236° Southwest  Level Estimated
Wed 04:41:00 AM 37.1099 110.6724 235° Southwest  Level Estimated
Wed 04:42:00 AM 37.0634 110.5878 235° Southwest  Level Estimated
Wed 04:43:00 AM 37.0168 110.5033 235° Southwest  Level Estimated
Wed 04:44:00 AM 36.9702 110.4190 235° Southwest  Level Estimated
Wed 04:45:00 AM 36.9235 110.3347 235° Southwest  Level Estimated
Wed 04:46:00 AM 36.8767 110.2505 235° Southwest  Level Estimated
Wed 04:47:00 AM 36.8299 110.1664 235° Southwest  Level Estimated
Wed 04:48:00 AM 36.7831 110.0825 235° Southwest  Level Estimated
Wed 04:49:00 AM 36.7361 109.9986 235° Southwest  Level Estimated
Wed 04:50:00 AM 36.6891 109.9148 235° Southwest  Level Estimated
Wed 04:51:00 AM 36.6421 109.8311 235° Southwest  Level Estimated
Wed 04:52:00 AM 36.5950 109.7476 235° Southwest  Level Estimated
Wed 04:53:00 AM 36.5478 109.6641 235° Southwest  Level Estimated
Wed 04:54:00 AM 36.5006 109.5808 235° Southwest  Level Estimated
Wed 04:55:00 AM 36.4533 109.4975 235° Southwest  Level Estimated
Wed 04:56:00 AM 36.4060 109.4144 235° Southwest  Level Estimated
Wed 04:57:00 AM 36.3586 109.3313 235° Southwest  Level Estimated
Wed 04:58:00 AM 36.3111 109.2484 235° Southwest  Level Estimated
Wed 04:59:00 AM 36.2636 109.1655 235° Southwest  Level Estimated
Wed 05:00:00 AM 36.2160 109.0828 235° Southwest  Level Estimated
Wed 05:01:00 AM 36.1684 109.0001 234° Southwest  Level Estimated
Wed 05:02:00 AM 36.1207 108.9176 234° Southwest  Level Estimated
Wed 05:03:00 AM 36.0730 108.8351 234° Southwest  Level Estimated
Wed 05:04:00 AM 36.0252 108.7528 234° Southwest  Level Estimated
Wed 05:05:00 AM 35.9774 108.6705 234° Southwest  Level Estimated
Wed 05:06:00 AM 35.9295 108.5884 234° Southwest  Level Estimated
Wed 05:07:00 AM 35.8815 108.5063 234° Southwest  Level Estimated
Wed 05:08:00 AM 35.8335 108.4244 234° Southwest  Level Estimated
Wed 05:09:00 AM 35.7854 108.3425 234° Southwest  Level Estimated
Wed 05:10:00 AM 35.7373 108.2608 234° Southwest  Level Estimated
Wed 05:11:00 AM 35.6891 108.1791 234° Southwest  Level Estimated
Wed 05:12:00 AM 35.6409 108.0976 234° Southwest  Level Estimated
Wed 05:13:00 AM 35.5926 108.0161 234° Southwest  Level Estimated
Wed 05:14:00 AM 35.5442 107.9347 234° Southwest  Level Estimated
Wed 05:15:00 AM 35.4958 107.8535 234° Southwest  Level Estimated
Wed 05:16:00 AM 35.4473 107.7723 234° Southwest  Level Estimated
Wed 05:17:00 AM 35.3988 107.6913 234° Southwest  Level Estimated
Wed 05:18:00 AM 35.3503 107.6103 234° Southwest  Level Estimated
Wed 05:19:00 AM 35.3017 107.5294 234° Southwest  Level Estimated
Wed 05:20:00 AM 35.2530 107.4486 234° Southwest  Level Estimated
Wed 05:21:00 AM 35.2043 107.3680 234° Southwest  Level Estimated
Wed 05:22:00 AM 35.1555 107.2874 233° Southwest  Level Estimated
Wed 05:23:00 AM 35.1066 107.2069 233° Southwest  Level Estimated
Wed 05:24:00 AM 35.0578 107.1265 233° Southwest  Level Estimated
Wed 05:25:00 AM 35.0088 107.0462 233° Southwest  Level Estimated
Wed 05:26:00 AM 34.9598 106.9661 233° Southwest  Level Estimated
Wed 05:27:00 AM 34.9108 106.8860 233° Southwest  Level Estimated
Wed 05:28:00 AM 34.8617 106.8060 233° Southwest  Level Estimated
Wed 05:29:00 AM 34.8125 106.7261 233° Southwest  Level Estimated
Wed 05:30:00 AM 34.7633 106.6462 233° Southwest  Level Estimated
Wed 05:31:00 AM 34.7141 106.5665 233° Southwest  Level Estimated
Wed 05:32:00 AM 34.6648 106.4869 233° Southwest  Level Estimated
Wed 05:33:00 AM 34.6154 106.4074 233° Southwest  Level Estimated
Wed 05:34:00 AM 34.5660 106.3279 233° Southwest  Level Estimated
Wed 05:35:00 AM 34.5165 106.2486 233° Southwest  Level Estimated
Wed 05:36:00 AM 34.4670 106.1694 233° Southwest  Level Estimated
Wed 05:37:00 AM 34.4175 106.0902 233° Southwest  Level Estimated
Wed 05:38:00 AM 34.3679 106.0112 233° Southwest  Level Estimated
Wed 05:39:00 AM 34.3182 105.9322 233° Southwest  Level Estimated
Wed 05:39:24 AM 32.4070 104.4980 233° Southwest 402 463 23,600  Level FlightAware ADS-B
Wed 05:40:00 AM 34.2685 105.8533 233° Southwest  Level Estimated
Wed 05:40:02 AM 32.4080 104.4140 271° West 403 464 23,600  Level FlightAware ADS-B
Wed 05:40:34 AM 32.4090 104.3420 271° West 400 460 23,600  Level FlightAware ADS-B
Wed 05:41:08 AM 32.4140 104.2690 275° West 378 435 23,600  Level FlightAware ADS-B
Wed 05:41:38 AM 32.4320 104.2110 290° West 374 430 23,600  Level FlightAware ADS-B
Wed 05:42:05 AM 32.4550 104.1680 302° West 378 435 23,600  Level FlightAware ADS-B
Wed 05:42:48 AM 32.4950 104.1030 306° West 378 435 23,600  Level FlightAware ADS-B
Wed 05:43:24 AM 32.5270 104.0520 307° West 378 435 23,600  Level FlightAware ADS-B
Wed 05:44:00 AM 32.5580 104.0000 305° West 378 435 23,600  Level FlightAware ADS-B
Wed 05:44:36 AM 32.5900 103.9490 307° West 378 435 23,600  Level FlightAware ADS-B
Wed 05:45:22 AM 32.6300 103.8830 306° West 378 435 23,600  Level FlightAware ADS-B
Wed 05:45:59 AM 32.6620 103.8300 306° West 378 435 23,600  Level FlightAware ADS-B
Wed 05:48:00 AM 32.8016 103.7248 328° Northwest  Level Estimated
Wed 05:49:00 AM 32.8570 103.6830 328° Northwest  Level Estimated
Wed 05:50:00 AM 32.8570 103.6830 North  Level Estimated
Wed 05:51:00 AM 32.8570 103.6830 North  Level Estimated
Wed 05:52:00 AM 32.8570 103.6830 North  Level Estimated
Wed 05:53:00 AM 32.8570 103.6830 North  Level Estimated
Wed 05:54:00 AM 32.8570 103.6830 North  Level Estimated
Wed 05:55:00 AM 32.8570 103.6830 North  Level Estimated
Wed 05:56:00 AM 32.8570 103.6830 North  Level Estimated
Wed 05:57:00 AM 32.8570 103.6830 North  Level Estimated
Wed 05:58:00 AM 32.8570 103.6830 North  Level Estimated
Wed 05:59:00 AM 32.8570 103.6830 North  Level Estimated
Wed 06:00:00 AM 32.8570 103.6830 North  Level Estimated
Wed 06:01:00 AM 32.8570 103.6830 North  Level Estimated
Wed 06:02:00 AM 32.8570 103.6830 North  Level Estimated

Login

Don't have an account? Register now (free) for customized features, flight alerts, and more!